Terminal Aerodrome Forecast
Issued by NWS

Home | Current Version | Previous Version | Graphics & Text | Print | Product List | Glossary On
Versions: 1 2 3 4 5 6 7 8 9 10 11 12 13 14 15 16 17
000
FTUS43 KTOP 251136
TAFFOE
TAF
KFOE 251136Z 2512/2612 15007KT P6SM SCT060 BKN250
     FM260100 16007KT P6SM SCT050 BKN120
     FM260500 14006KT P6SM VCTS SCT050 BKN080CB=

USA.gov is the U.S. government's official web portal to all federal, state and local government web resources and services.